createdAt,value
2023-02-07T00:00:01.443Z,27.28
2023-02-07T00:01:01.480Z,27.29
2023-02-07T00:02:01.595Z,27.29
2023-02-07T00:03:01.650Z,27.28
2023-02-07T00:04:01.579Z,27.28
2023-02-07T00:05:01.688Z,27.27
2023-02-07T00:06:01.684Z,27.27
2023-02-07T00:07:01.735Z,27.28
2023-02-07T00:08:01.741Z,27.27
2023-02-07T00:09:01.786Z,27.28
2023-02-07T00:10:01.817Z,27.27
2023-02-07T00:11:01.897Z,27.28
2023-02-07T00:12:01.935Z,27.28
2023-02-07T00:14:08.598Z,27.25
2023-02-07T00:15:08.609Z,27.28
2023-02-07T00:16:08.723Z,27.27
2023-02-07T00:17:08.739Z,27.29
2023-02-07T00:18:08.771Z,27.28
2023-02-07T00:19:08.845Z,27.27
2023-02-07T00:20:08.898Z,27.28
2023-02-07T00:21:08.933Z,27.28
2023-02-07T00:22:09.013Z,27.28
2023-02-07T00:23:09.060Z,27.27
2023-02-07T00:24:09.048Z,27.25
2023-02-07T00:25:09.081Z,27.27
2023-02-07T00:26:09.138Z,27.27
2023-02-07T00:27:09.212Z,27.28
2023-02-07T00:28:09.348Z,27.28
2023-02-07T00:29:09.802Z,27.28
2023-02-07T00:30:09.343Z,27.28
2023-02-07T00:31:09.438Z,27.28
2023-02-07T00:32:09.412Z,27.28
2023-02-07T00:33:09.458Z,27.27
2023-02-07T00:34:09.491Z,27.27
2023-02-07T00:35:09.542Z,27.28
2023-02-07T00:36:09.573Z,27.25
2023-02-07T00:37:09.603Z,27.29
2023-02-07T00:38:09.602Z,27.27
2023-02-07T00:39:09.671Z,27.28
2023-02-07T00:40:09.702Z,27.29
2023-02-07T00:41:09.755Z,27.25
2023-02-07T00:42:09.777Z,27.29
2023-02-07T00:43:12.898Z,27.28
2023-02-07T00:44:10.844Z,27.29
2023-02-07T00:45:09.816Z,27.28
2023-02-07T00:46:09.904Z,27.25
2023-02-07T00:47:09.821Z,27.25
2023-02-07T00:48:09.825Z,27.27
2023-02-07T00:49:09.807Z,27.28
2023-02-07T00:50:09.902Z,27.29
2023-02-07T00:51:09.778Z,27.29
2023-02-07T00:52:09.751Z,27.28
2023-02-07T00:53:09.802Z,27.31
2023-02-07T00:54:09.834Z,27.29
2023-02-07T00:55:09.870Z,27.28
2023-02-07T00:56:09.889Z,27.29
2023-02-07T00:57:09.985Z,27.28
2023-02-07T00:58:10.038Z,27.28
2023-02-07T00:59:10.098Z,27.28
2023-02-07T01:00:10.110Z,27.28
2023-02-07T01:01:10.213Z,27.29
2023-02-07T01:02:10.235Z,27.29
2023-02-07T01:03:10.275Z,27.29
2023-02-07T01:04:10.310Z,27.28
2023-02-07T01:05:10.367Z,27.28
2023-02-07T01:06:10.411Z,27.29
2023-02-07T01:07:10.464Z,27.29
2023-02-07T01:08:10.492Z,27.31
2023-02-07T01:09:10.498Z,27.29
2023-02-07T01:10:10.557Z,27.29
2023-02-07T01:11:10.602Z,27.28
2023-02-07T01:12:10.662Z,27.29
2023-02-07T01:13:10.736Z,27.28
2023-02-07T01:14:10.742Z,27.29
2023-02-07T01:15:10.796Z,27.31
2023-02-07T01:16:10.871Z,27.31
2023-02-07T01:17:10.898Z,27.28
2023-02-07T01:18:10.929Z,27.28
2023-02-07T01:19:11.001Z,27.28
2023-02-07T01:20:11.158Z,27.29
2023-02-07T01:21:11.102Z,27.29
2023-02-07T01:22:11.188Z,27.27
2023-02-07T01:23:11.249Z,27.29
2023-02-07T01:24:11.266Z,27.28
2023-02-07T01:25:11.478Z,27.28
2023-02-07T01:26:11.368Z,27.29
2023-02-07T01:27:11.421Z,27.29
2023-02-07T01:28:11.462Z,27.27
2023-02-07T01:29:11.530Z,27.29
2023-02-07T01:30:11.599Z,27.29
2023-02-07T01:31:11.690Z,27.28
2023-02-07T01:32:11.681Z,27.31
2023-02-07T01:33:11.737Z,27.31
2023-02-07T01:34:11.781Z,27.28
2023-02-07T01:35:11.789Z,27.28
2023-02-07T01:36:11.875Z,27.32
2023-02-07T01:37:11.956Z,27.28
2023-02-07T01:38:11.963Z,27.29
2023-02-07T01:39:12.009Z,27.29
2023-02-07T01:40:12.075Z,27.31
2023-02-07T01:41:12.145Z,27.28
2023-02-07T01:42:12.193Z,27.31
2023-02-07T01:43:12.254Z,27.29
2023-02-07T01:44:12.320Z,27.28
2023-02-07T01:45:12.368Z,27.29
2023-02-07T01:46:12.465Z,27.28
2023-02-07T01:47:12.486Z,27.28
2023-02-07T01:48:12.510Z,27.31
2023-02-07T01:49:12.590Z,27.28
2023-02-07T01:50:12.626Z,27.29
2023-02-07T01:51:12.662Z,27.29
2023-02-07T01:52:12.703Z,27.29
2023-02-07T01:53:12.742Z,27.28
2023-02-07T01:54:12.774Z,27.29
2023-02-07T01:55:12.847Z,27.28
2023-02-07T01:56:20.130Z,27.29
2023-02-07T01:57:13.870Z,27.28
2023-02-07T01:58:12.851Z,27.29
2023-02-07T01:59:12.875Z,27.29
2023-02-07T02:00:12.876Z,27.28
2023-02-07T02:01:12.902Z,27.28
2023-02-07T02:02:12.840Z,27.29
2023-02-07T02:03:12.823Z,27.29
2023-02-07T02:04:12.840Z,27.28
2023-02-07T02:05:12.798Z,27.29
2023-02-07T02:06:12.851Z,27.28
2023-02-07T02:07:12.910Z,27.29
2023-02-07T02:08:12.949Z,27.27
2023-02-07T02:09:13.012Z,27.28
2023-02-07T02:10:13.069Z,27.28
2023-02-07T02:11:13.084Z,27.29
2023-02-07T02:12:13.202Z,27.29
2023-02-07T02:13:13.256Z,27.29
2023-02-07T02:14:13.307Z,27.31
2023-02-07T02:15:13.380Z,27.31
2023-02-07T02:16:13.449Z,27.29
2023-02-07T02:17:13.442Z,27.29
2023-02-07T02:18:13.529Z,27.28
2023-02-07T02:19:13.546Z,27.29
2023-02-07T02:20:13.620Z,27.29
2023-02-07T02:21:13.662Z,27.29
2023-02-07T02:22:13.715Z,27.29
2023-02-07T02:23:13.740Z,27.31
2023-02-07T02:24:13.784Z,27.28
2023-02-07T02:25:13.830Z,27.31
2023-02-07T02:26:13.906Z,27.29
2023-02-07T02:27:13.927Z,27.29
2023-02-07T02:28:14.003Z,27.31
2023-02-07T02:29:14.057Z,27.29
2023-02-07T02:30:14.127Z,27.31
2023-02-07T02:31:14.230Z,27.29
2023-02-07T02:32:14.241Z,27.31
2023-02-07T02:33:14.320Z,27.31
2023-02-07T02:34:14.442Z,27.34
2023-02-07T02:35:14.438Z,27.29
2023-02-07T02:36:14.471Z,27.29
2023-02-07T02:37:14.549Z,27.29
2023-02-07T02:38:14.581Z,27.31
2023-02-07T02:39:14.648Z,27.29
2023-02-07T02:40:14.696Z,27.29
2023-02-07T02:41:14.764Z,27.31
2023-02-07T02:42:14.839Z,27.31
2023-02-07T02:43:14.854Z,27.31
2023-02-07T02:44:14.940Z,27.32
2023-02-07T02:45:14.988Z,27.31
2023-02-07T02:46:15.092Z,27.31
2023-02-07T02:47:15.123Z,27.29
2023-02-07T02:48:15.169Z,27.29
2023-02-07T02:49:15.248Z,27.29
2023-02-07T02:50:15.319Z,27.31
2023-02-07T02:51:15.414Z,27.29
2023-02-07T02:52:15.412Z,27.29
2023-02-07T02:53:15.498Z,27.29
2023-02-07T02:54:15.571Z,27.29
2023-02-07T02:55:15.616Z,27.29
2023-02-07T02:56:15.641Z,27.31
2023-02-07T02:57:15.724Z,27.29
2023-02-07T02:58:15.774Z,27.31
2023-02-07T02:59:15.849Z,27.31
2023-02-07T03:00:15.885Z,27.34
2023-02-07T03:01:15.988Z,27.32
2023-02-07T03:02:16.026Z,27.31
2023-02-07T03:03:16.074Z,27.31
2023-02-07T03:04:16.205Z,27.31
2023-02-07T03:05:16.221Z,27.29
2023-02-07T03:06:16.274Z,27.31
2023-02-07T03:07:16.328Z,27.35
2023-02-07T03:08:16.358Z,27.31
2023-02-07T03:09:16.459Z,27.32
2023-02-07T03:10:16.481Z,27.32
2023-02-07T03:11:16.560Z,27.32
2023-02-07T03:12:16.612Z,27.34
2023-02-07T03:13:16.692Z,27.35
2023-02-07T03:14:16.760Z,27.37
2023-02-07T03:15:16.809Z,27.35
2023-02-07T03:16:16.923Z,27.35
2023-02-07T03:17:16.881Z,27.38
2023-02-07T03:18:16.961Z,27.37
2023-02-07T03:19:17.032Z,27.39
2023-02-07T03:20:17.101Z,27.39
2023-02-07T03:21:17.143Z,27.44
2023-02-07T03:22:17.190Z,27.42
2023-02-07T03:23:17.267Z,27.42
2023-02-07T03:24:17.323Z,27.46
2023-02-07T03:25:17.349Z,27.45
2023-02-07T03:26:17.416Z,27.48
2023-02-07T03:27:17.456Z,27.48
2023-02-07T03:28:17.659Z,27.50
2023-02-07T03:29:17.576Z,27.50
2023-02-07T03:30:17.595Z,27.53
2023-02-07T03:31:17.664Z,27.53
2023-02-07T03:32:17.689Z,27.56
2023-02-07T03:33:17.750Z,27.56
2023-02-07T03:34:17.730Z,27.58
2023-02-07T03:35:17.788Z,27.59
2023-02-07T03:36:17.828Z,27.62
2023-02-07T03:37:17.842Z,27.62
2023-02-07T03:38:17.858Z,27.65
2023-02-07T03:39:17.908Z,27.65
2023-02-07T03:40:17.917Z,27.66
2023-02-07T03:41:17.979Z,27.68
2023-02-07T03:42:18.011Z,27.69
2023-02-07T03:43:18.015Z,27.72
2023-02-07T03:44:18.022Z,27.73
2023-02-07T03:45:18.049Z,27.73
2023-02-07T03:46:18.055Z,27.76
2023-02-07T04:07:18.311Z,27.96
2023-02-07T04:08:18.364Z,27.96
2023-02-07T04:09:18.452Z,27.99
2023-02-07T04:10:18.584Z,27.99
2023-02-07T04:11:18.652Z,28.01
2023-02-07T04:12:18.752Z,28.01
2023-02-07T04:13:18.733Z,28.00
2023-02-07T04:14:18.803Z,28.04
2023-02-07T04:15:18.791Z,28.01
2023-02-07T04:16:18.834Z,28.04
2023-02-07T04:17:18.816Z,28.06
2023-02-07T04:18:18.830Z,28.07
2023-02-07T04:19:18.903Z,28.07
2023-02-07T04:20:18.934Z,28.07
2023-02-07T04:21:19.013Z,28.06
2023-02-07T04:22:19.102Z,28.09
2023-02-07T04:23:19.157Z,28.11
2023-02-07T04:24:19.276Z,28.11
2023-02-07T04:25:19.274Z,28.11
2023-02-07T04:26:19.312Z,28.11
2023-02-07T04:27:19.409Z,28.13
2023-02-07T04:28:19.488Z,28.11
2023-02-07T04:29:19.509Z,28.13
2023-02-07T04:30:19.656Z,28.13
2023-02-07T04:31:19.716Z,28.16
2023-02-07T04:32:19.679Z,28.11
2023-02-07T04:33:19.782Z,28.13
2023-02-07T04:34:19.819Z,28.14
2023-02-07T04:35:19.896Z,28.13
2023-02-07T04:36:19.996Z,28.16
2023-02-07T04:37:20.017Z,28.14
2023-02-07T04:38:20.075Z,28.17
2023-02-07T04:39:20.152Z,28.16
2023-02-07T04:40:20.140Z,28.17
2023-02-07T04:41:20.248Z,28.17
2023-02-07T04:42:20.273Z,28.17
2023-02-07T04:43:20.328Z,28.16
2023-02-07T04:44:20.347Z,28.16
2023-02-07T04:45:20.406Z,28.17
2023-02-07T04:46:20.445Z,28.16
2023-02-07T04:47:20.542Z,28.16
2023-02-07T04:48:20.566Z,28.19
2023-02-07T04:49:20.617Z,28.17
2023-02-07T04:50:20.622Z,28.16
2023-02-07T04:51:20.662Z,28.16
2023-02-07T04:52:20.682Z,28.14
2023-02-07T04:53:20.725Z,28.14
2023-02-07T04:54:20.731Z,28.16
2023-02-07T04:55:20.740Z,28.16
2023-02-07T04:56:20.811Z,28.17
2023-02-07T05:04:20.959Z,28.11
2023-02-07T05:05:20.905Z,28.11
2023-02-07T05:06:20.920Z,28.11
2023-02-07T05:07:20.907Z,28.11
2023-02-07T05:08:20.941Z,28.09
2023-02-07T05:09:20.894Z,28.07
2023-02-07T05:10:20.980Z,28.09
2023-02-07T05:11:20.988Z,28.07
2023-02-07T05:12:20.979Z,28.07
2023-02-07T05:13:20.992Z,28.07
2023-02-07T05:14:21.003Z,28.06
2023-02-07T05:15:21.002Z,28.04
2023-02-07T05:16:21.102Z,28.06
2023-02-07T05:17:21.169Z,28.06
2023-02-07T05:18:21.194Z,28.04
2023-02-07T05:19:21.721Z,28.06
2023-02-07T05:25:21.213Z,28.03
2023-02-07T05:26:21.255Z,28.00
2023-02-07T05:27:21.354Z,28.03
2023-02-07T05:28:21.387Z,28.03
2023-02-07T05:29:21.395Z,28.00
2023-02-07T05:30:21.387Z,27.99
2023-02-07T05:31:21.511Z,28.00
2023-02-07T05:32:21.406Z,28.00
2023-02-07T05:33:21.439Z,27.99
2023-02-07T05:34:21.538Z,27.99
2023-02-07T05:35:21.548Z,28.01
2023-02-07T05:36:21.557Z,28.03
2023-02-07T05:37:21.556Z,28.03
2023-02-07T05:38:21.582Z,28.01
2023-02-07T05:39:21.537Z,28.00
2023-02-07T05:40:21.659Z,28.00
2023-02-07T05:42:21.731Z,27.99
2023-02-07T05:53:22.438Z,28.00
2023-02-07T05:54:22.437Z,28.00
2023-02-07T05:55:22.466Z,28.00
2023-02-07T05:56:22.441Z,28.01
2023-02-07T05:57:22.467Z,28.01
2023-02-07T05:58:22.451Z,28.06
2023-02-07T05:59:22.525Z,27.99
2023-02-07T06:00:29.913Z,28.01
2023-02-07T06:01:22.529Z,28.03
2023-02-07T06:02:22.561Z,28.01
2023-02-07T06:03:22.560Z,28.01
2023-02-07T06:04:22.496Z,28.03
2023-02-07T06:05:22.496Z,28.03
2023-02-07T06:06:22.479Z,28.00
2023-02-07T06:07:22.509Z,28.01
2023-02-07T06:08:22.489Z,28.03
2023-02-07T06:09:22.460Z,28.01
2023-02-07T06:10:22.430Z,28.01
2023-02-07T06:11:22.466Z,28.01
2023-02-07T06:12:22.488Z,28.01
2023-02-07T06:13:22.448Z,28.00
2023-02-07T06:14:22.436Z,28.01
2023-02-07T06:15:22.435Z,28.04
2023-02-07T06:16:22.429Z,28.03
2023-02-07T06:18:22.423Z,28.01
2023-02-07T06:19:22.417Z,28.03
2023-02-07T06:21:22.458Z,28.01
2023-02-07T06:24:22.464Z,28.01
2023-02-07T06:35:23.466Z,27.99
2023-02-07T06:40:22.447Z,27.97
2023-02-07T06:45:29.495Z,28.01
2023-02-07T06:50:22.504Z,28.10
2023-02-07T06:55:22.488Z,28.14
2023-02-07T07:41:22.544Z,28.36
2023-02-07T07:51:22.457Z,28.43
2023-02-07T07:52:22.514Z,28.46
2023-02-07T07:53:22.547Z,28.48
2023-02-07T07:54:22.528Z,28.48
2023-02-07T07:55:22.578Z,28.54
2023-02-07T07:56:22.995Z,28.51
2023-02-07T07:57:22.593Z,28.55
2023-02-07T07:58:22.630Z,28.57
2023-02-07T07:59:24.257Z,28.55
2023-02-07T08:00:22.609Z,28.58
2023-02-07T08:01:22.647Z,28.64
2023-02-07T08:02:22.666Z,28.64
2023-02-07T08:03:22.681Z,28.62
2023-02-07T08:04:22.678Z,28.65
2023-02-07T08:05:22.688Z,28.65
2023-02-07T08:06:22.731Z,28.70
2023-02-07T08:07:22.706Z,28.68
2023-02-07T08:08:22.744Z,28.70
2023-02-07T08:09:22.705Z,28.72
2023-02-07T08:10:22.714Z,28.72
2023-02-07T08:11:23.006Z,28.75
2023-02-07T08:12:22.796Z,28.71
2023-02-07T08:13:23.358Z,28.75
2023-02-07T08:14:22.909Z,28.77
2023-02-07T08:15:22.957Z,28.75
2023-02-07T08:16:23.173Z,28.77
2023-02-07T08:17:23.088Z,28.77
2023-02-07T08:18:23.266Z,28.77
2023-02-07T08:19:23.246Z,28.77
2023-02-07T08:20:23.295Z,28.78
2023-02-07T08:21:23.285Z,28.81
2023-02-07T08:22:23.416Z,28.79
2023-02-07T08:23:23.430Z,28.81
2023-02-07T08:24:23.484Z,28.78
2023-02-07T08:25:23.503Z,28.81
2023-02-07T08:26:24.063Z,28.84
2023-02-07T08:27:23.643Z,28.85
2023-02-07T08:28:23.799Z,28.85
2023-02-07T08:29:23.740Z,28.85
2023-02-07T08:30:23.783Z,28.85
2023-02-07T08:31:25.682Z,28.90
2023-02-07T08:32:23.879Z,28.98
2023-02-07T08:33:23.973Z,29.02
2023-02-07T08:34:24.282Z,29.05
2023-02-07T08:35:24.103Z,29.03
2023-02-07T08:36:24.029Z,29.08
2023-02-07T08:37:24.035Z,29.08
2023-02-07T08:38:24.101Z,29.09
2023-02-07T08:39:24.125Z,29.03
2023-02-07T08:40:24.150Z,29.02
2023-02-07T08:41:24.179Z,28.99
2023-02-07T08:42:24.235Z,28.95
2023-02-07T08:43:24.265Z,28.91
2023-02-07T08:44:24.391Z,28.90
2023-02-07T08:45:24.475Z,28.87
2023-02-07T08:46:24.625Z,28.85
2023-02-07T08:47:24.616Z,28.85
2023-02-07T08:48:24.671Z,28.88
2023-02-07T08:50:24.727Z,28.82
2023-02-07T08:51:25.044Z,28.81
2023-02-07T08:52:24.776Z,28.82
2023-02-07T08:53:24.883Z,28.82
2023-02-07T08:54:24.883Z,28.78
2023-02-07T08:55:24.999Z,28.77
2023-02-07T08:56:25.582Z,28.78
2023-02-07T08:57:25.160Z,28.77
2023-02-07T08:58:25.153Z,28.78
2023-02-07T08:59:25.212Z,28.75
2023-02-07T09:00:25.281Z,28.77
2023-02-07T09:01:25.597Z,28.77
2023-02-07T09:02:25.452Z,28.74
2023-02-07T09:03:25.448Z,28.74
2023-02-07T09:04:25.516Z,28.77
2023-02-07T09:05:25.589Z,28.75
2023-02-07T09:06:25.671Z,28.77
2023-02-07T09:07:25.734Z,28.77
2023-02-07T09:08:25.781Z,28.75
2023-02-07T09:09:25.842Z,28.77
2023-02-07T09:10:26.322Z,28.78
2023-02-07T09:11:26.019Z,28.74
2023-02-07T09:12:26.035Z,28.75
2023-02-07T09:13:26.084Z,28.74
2023-02-07T09:14:26.104Z,28.71
2023-02-07T09:15:26.153Z,28.71
2023-02-07T09:16:26.635Z,28.72
2023-02-07T09:17:26.149Z,28.71
2023-02-07T09:18:26.236Z,28.74
2023-02-07T09:19:26.213Z,28.71
2023-02-07T09:20:26.181Z,28.71
2023-02-07T09:21:26.263Z,28.71
2023-02-07T09:22:26.202Z,28.71
2023-02-07T09:23:26.251Z,28.72
2023-02-07T09:24:26.385Z,28.72
2023-02-07T09:25:26.374Z,28.72
2023-02-07T09:26:26.519Z,28.72
2023-02-07T09:27:26.578Z,28.74
2023-02-07T09:28:26.587Z,28.74
2023-02-07T09:29:26.615Z,28.72
2023-02-07T09:30:26.605Z,28.71
2023-02-07T09:31:26.687Z,28.72
2023-02-07T09:32:27.079Z,28.74
2023-02-07T09:33:26.635Z,28.77
2023-02-07T09:34:26.717Z,28.78
2023-02-07T09:35:26.766Z,28.81
2023-02-07T09:36:26.883Z,28.79
2023-02-07T09:37:26.881Z,28.82
2023-02-07T09:38:26.999Z,28.82
2023-02-07T09:39:27.104Z,28.84
2023-02-07T09:40:28.035Z,28.84
2023-02-07T09:41:27.127Z,28.87
2023-02-07T09:42:27.570Z,28.84
2023-02-07T09:43:28.298Z,28.87
2023-02-07T09:44:27.433Z,28.85
2023-02-07T09:45:27.521Z,28.85
2023-02-07T09:46:27.482Z,28.87
2023-02-07T09:47:27.635Z,28.88
2023-02-07T09:48:27.520Z,28.90
2023-02-07T09:49:27.660Z,28.90
2023-02-07T09:50:27.706Z,28.92
2023-02-07T09:51:27.737Z,28.85
2023-02-07T09:52:28.083Z,28.87
2023-02-07T09:53:27.905Z,28.88
2023-02-07T09:54:27.897Z,28.88
2023-02-07T09:55:27.923Z,28.87
2023-02-07T09:56:27.978Z,28.84
2023-02-07T09:57:28.045Z,28.88
2023-02-07T09:58:28.120Z,28.85
2023-02-07T09:59:28.179Z,28.84
2023-02-07T10:00:28.305Z,28.81
2023-02-07T10:01:28.251Z,28.82
2023-02-07T10:02:28.241Z,28.79
2023-02-07T10:03:28.209Z,28.78
2023-02-07T10:04:28.293Z,28.81
2023-02-07T10:05:28.311Z,28.82
2023-02-07T10:06:28.379Z,28.82
2023-02-07T10:07:28.422Z,28.82
2023-02-07T10:08:36.631Z,28.85
2023-02-07T10:09:29.459Z,28.87
2023-02-07T10:10:28.450Z,28.85
2023-02-07T10:11:28.530Z,28.85
2023-02-07T10:12:28.577Z,28.88
2023-02-07T10:13:28.428Z,28.88
2023-02-07T10:14:28.396Z,28.90
2023-02-07T10:15:28.474Z,28.91
2023-02-07T10:16:28.446Z,28.92
2023-02-07T10:17:32.208Z,28.92
2023-02-07T10:18:28.600Z,28.95
2023-02-07T10:19:28.505Z,28.95
2023-02-07T10:20:28.483Z,28.98
2023-02-07T10:21:28.484Z,28.98
2023-02-07T10:22:28.515Z,29.01
2023-02-07T10:23:28.458Z,28.99
2023-02-07T10:24:28.487Z,29.01
2023-02-07T10:25:30.828Z,29.03
2023-02-07T10:26:28.563Z,29.05
2023-02-07T10:27:28.571Z,29.08
2023-02-07T10:28:28.637Z,29.05
2023-02-07T10:29:28.678Z,29.03
2023-02-07T10:30:28.781Z,29.05
2023-02-07T10:31:28.856Z,29.05
2023-02-07T10:32:28.820Z,29.03
2023-02-07T10:33:28.869Z,29.02
2023-02-07T10:34:28.948Z,29.03
2023-02-07T10:35:28.988Z,29.03
2023-02-07T10:36:29.042Z,29.06
2023-02-07T10:37:29.046Z,29.05
2023-02-07T10:38:29.098Z,29.05
2023-02-07T10:39:29.145Z,29.09
2023-02-07T10:40:29.169Z,29.06
2023-02-07T10:41:29.227Z,29.09
2023-02-07T10:42:29.287Z,29.06
2023-02-07T10:43:29.356Z,29.06
2023-02-07T10:44:29.300Z,29.09
2023-02-07T10:45:29.361Z,29.09
2023-02-07T10:46:29.459Z,29.08
2023-02-07T10:47:29.490Z,29.09
2023-02-07T10:49:29.498Z,29.06
2023-02-07T10:50:30.548Z,29.05
2023-02-07T10:51:29.560Z,29.03
2023-02-07T10:52:29.597Z,29.02
2023-02-07T10:53:29.675Z,29.03
2023-02-07T10:54:29.725Z,29.03
2023-02-07T10:55:29.787Z,29.02
2023-02-07T10:59:29.919Z,28.98
2023-02-07T11:00:29.979Z,28.99
2023-02-07T11:01:30.107Z,28.97
2023-02-07T11:02:30.117Z,28.98
2023-02-07T11:03:30.223Z,28.94
2023-02-07T11:04:30.193Z,28.94
2023-02-07T11:05:30.196Z,28.90
2023-02-07T11:06:30.336Z,28.88
2023-02-07T11:07:36.763Z,28.88
2023-02-07T11:08:31.412Z,28.88
2023-02-07T11:09:30.359Z,28.85
2023-02-07T11:10:30.355Z,28.85
2023-02-07T11:11:30.348Z,28.87
2023-02-07T11:12:30.370Z,28.87
2023-02-07T11:13:30.394Z,28.85
2023-02-07T11:14:30.466Z,28.88
2023-02-07T11:15:30.506Z,28.87
2023-02-07T11:16:30.550Z,28.85
2023-02-07T11:17:30.650Z,28.82
2023-02-07T11:18:31.151Z,28.84
2023-02-07T11:19:30.736Z,28.84
2023-02-07T11:20:30.753Z,28.84
2023-02-07T11:21:30.844Z,28.84
2023-02-07T11:22:30.902Z,28.85
2023-02-07T11:23:30.981Z,28.85
2023-02-07T11:24:31.018Z,28.82
2023-02-07T11:25:31.086Z,28.82
2023-02-07T11:26:31.157Z,28.79
2023-02-07T11:27:31.167Z,28.79
2023-02-07T11:28:31.635Z,28.67
2023-02-07T11:32:31.393Z,28.26
2023-02-07T11:33:31.411Z,28.13
2023-02-07T11:34:31.398Z,28.09
2023-02-07T11:35:31.400Z,28.01
2023-02-07T11:36:31.436Z,28.01
2023-02-07T11:38:31.684Z,28.03
2023-02-07T11:39:31.604Z,28.04
2023-02-07T11:40:32.216Z,28.10
2023-02-07T11:41:31.676Z,28.14
2023-02-07T11:43:32.249Z,28.19
2023-02-07T11:44:32.646Z,28.20
2023-02-07T11:45:31.800Z,28.23
2023-02-07T11:46:31.896Z,28.24
2023-02-07T11:47:31.854Z,28.28
2023-02-07T11:48:31.809Z,28.33
2023-02-07T11:49:31.848Z,28.39
2023-02-07T11:56:32.518Z,28.50
2023-02-07T11:58:32.423Z,28.54
2023-02-07T11:59:32.536Z,28.57
2023-02-07T12:00:32.583Z,28.58
2023-02-07T12:01:32.708Z,28.62
2023-02-07T12:02:32.697Z,28.67
2023-02-07T12:03:32.715Z,28.67
2023-02-07T12:04:32.810Z,28.68
2023-02-07T12:05:32.866Z,28.72
2023-02-07T12:06:32.874Z,28.77
2023-02-07T12:07:32.996Z,28.75
2023-02-07T12:08:33.165Z,28.78
2023-02-07T12:09:33.023Z,28.79
2023-02-07T12:24:33.441Z,28.97
2023-02-07T13:11:34.379Z,29.32
2023-02-07T13:25:34.742Z,29.11
2023-02-07T13:30:34.895Z,29.03
2023-02-07T13:33:35.054Z,29.01
2023-02-07T13:39:35.209Z,28.99
2023-02-07T13:41:35.281Z,28.97
2023-02-07T13:42:35.317Z,28.98
2023-02-07T13:43:35.369Z,28.95
2023-02-07T13:44:35.366Z,28.97
2023-02-07T13:45:35.501Z,28.97
2023-02-07T13:46:35.485Z,28.97
2023-02-07T13:47:35.493Z,28.95
2023-02-07T13:48:35.534Z,28.99
2023-02-07T13:49:35.545Z,29.01
2023-02-07T13:50:35.617Z,28.99
2023-02-07T13:51:35.594Z,28.99
2023-02-07T13:52:35.667Z,29.01
2023-02-07T13:53:36.072Z,29.01
2023-02-07T13:54:35.703Z,29.03
2023-02-07T13:55:35.726Z,29.05
2023-02-07T13:56:35.759Z,29.05
2023-02-07T13:57:35.752Z,29.06
2023-02-07T13:58:35.775Z,29.05
2023-02-07T13:59:35.783Z,29.06
2023-02-07T14:00:35.814Z,29.08
2023-02-07T14:01:35.857Z,29.08
2023-02-07T14:02:35.895Z,29.08
2023-02-07T14:03:35.958Z,29.05
2023-02-07T14:04:35.921Z,29.08
2023-02-07T14:05:35.923Z,29.08
2023-02-07T14:06:35.963Z,29.06
2023-02-07T14:07:36.045Z,29.08
2023-02-07T14:08:36.046Z,29.09
2023-02-07T14:09:36.050Z,29.08
2023-02-07T14:10:36.102Z,29.06
2023-02-07T14:11:36.100Z,29.06
2023-02-07T14:12:36.125Z,29.08
2023-02-07T14:13:36.160Z,29.05
2023-02-07T14:14:36.153Z,29.06
2023-02-07T14:15:36.259Z,29.09
2023-02-07T14:16:36.226Z,29.09
2023-02-07T14:17:36.249Z,29.06
2023-02-07T14:18:36.306Z,29.05
2023-02-07T14:19:36.329Z,29.05
2023-02-07T14:20:36.637Z,29.05
2023-02-07T14:21:36.368Z,29.06
2023-02-07T14:22:37.021Z,29.03
2023-02-07T14:23:36.447Z,29.03
2023-02-07T14:24:36.521Z,29.03
2023-02-07T14:25:37.014Z,29.03
2023-02-07T14:26:36.546Z,29.03
2023-02-07T14:27:36.588Z,29.03
2023-02-07T14:28:36.641Z,29.02
2023-02-07T14:37:36.907Z,29.01
2023-02-07T14:43:37.603Z,29.03
2023-02-07T14:44:37.105Z,29.03
2023-02-07T14:45:37.263Z,29.05
2023-02-07T14:46:38.278Z,29.02
2023-02-07T15:09:37.835Z,28.84
2023-02-07T15:10:38.506Z,28.81
2023-02-07T15:11:37.958Z,28.75
2023-02-07T15:12:38.037Z,28.74
2023-02-07T15:13:38.124Z,28.72
2023-02-07T15:14:38.134Z,28.68
2023-02-07T15:15:38.248Z,28.65
2023-02-07T15:16:38.244Z,28.62
2023-02-07T15:17:44.206Z,28.60
2023-02-07T15:19:38.315Z,28.57
2023-02-07T15:20:38.594Z,28.55
2023-02-07T15:21:38.275Z,28.51
2023-02-07T15:22:38.271Z,28.48
2023-02-07T15:23:38.310Z,28.43
2023-02-07T15:24:50.526Z,28.43
2023-02-07T15:26:38.270Z,28.37
2023-02-07T15:27:38.208Z,28.39
2023-02-07T15:28:38.289Z,28.39
2023-02-07T15:29:38.234Z,28.37
2023-02-07T15:30:38.492Z,28.33
2023-02-07T15:31:38.348Z,28.31
2023-02-07T15:32:38.233Z,28.26
2023-02-07T15:33:38.189Z,28.27
2023-02-07T15:34:38.240Z,28.26
2023-02-07T15:35:38.167Z,28.24
2023-02-07T15:36:38.165Z,28.24
2023-02-07T15:37:38.169Z,28.21
2023-02-07T15:38:38.138Z,28.20
2023-02-07T15:39:38.218Z,28.20
2023-02-07T15:40:38.397Z,28.16
2023-02-07T15:41:38.127Z,28.17
2023-02-07T15:42:38.161Z,28.17
2023-02-07T15:43:38.133Z,28.13
2023-02-07T15:44:38.113Z,28.13
2023-02-07T15:45:38.567Z,28.11
2023-02-07T15:46:38.181Z,28.11
2023-02-07T15:47:38.147Z,28.09
2023-02-07T15:48:38.207Z,28.10
2023-02-07T15:49:38.205Z,28.09
2023-02-07T15:50:38.560Z,28.09
2023-02-07T15:51:38.336Z,28.06
2023-02-07T15:52:38.338Z,28.04
2023-02-07T15:53:38.374Z,28.03
2023-02-07T15:54:38.452Z,28.00
2023-02-07T15:55:38.726Z,28.00
2023-02-07T15:56:39.439Z,27.99
2023-02-07T15:57:38.576Z,27.89
2023-02-07T15:58:38.583Z,27.92
2023-02-07T15:59:38.636Z,27.85
2023-02-07T16:00:38.924Z,27.88
2023-02-07T16:01:38.763Z,27.88
2023-02-07T16:02:38.906Z,27.88
2023-02-07T16:03:38.839Z,27.86
2023-02-07T16:04:39.031Z,27.88
2023-02-07T16:05:38.937Z,27.86
2023-02-07T16:06:38.949Z,27.90
2023-02-07T16:07:38.996Z,27.92
2023-02-07T16:08:39.072Z,27.90
2023-02-07T16:09:39.085Z,27.92
2023-02-07T16:10:39.479Z,27.89
2023-02-07T16:11:39.185Z,27.92
2023-02-07T16:12:39.226Z,27.92
2023-02-07T16:13:39.195Z,27.92
2023-02-07T16:14:39.308Z,27.90
2023-02-07T16:15:39.324Z,27.90
2023-02-07T16:16:39.363Z,27.89
2023-02-07T16:17:39.392Z,27.92
2023-02-07T16:18:39.422Z,27.90
2023-02-07T16:19:39.489Z,27.90
2023-02-07T16:20:39.914Z,27.93
2023-02-07T16:21:39.574Z,27.93
2023-02-07T16:22:39.571Z,27.90
2023-02-07T16:23:39.573Z,27.90
2023-02-07T16:24:39.657Z,27.86
2023-02-07T16:25:39.666Z,27.90
2023-02-07T16:26:39.724Z,27.89
2023-02-07T16:27:39.747Z,27.89
2023-02-07T16:28:39.815Z,27.88
2023-02-07T16:29:39.872Z,27.89
2023-02-07T16:31:39.952Z,27.88
2023-02-07T16:32:39.981Z,27.90
2023-02-07T16:33:40.111Z,27.88
2023-02-07T16:34:53.800Z,27.88
2023-02-07T16:36:40.023Z,27.86
2023-02-07T16:37:40.025Z,27.83
2023-02-07T16:38:40.041Z,27.85
2023-02-07T16:39:40.036Z,27.86
2023-02-07T16:40:40.326Z,27.83
2023-02-07T16:41:40.006Z,27.85
2023-02-07T16:42:40.008Z,27.86
2023-02-07T16:43:39.979Z,27.85
2023-02-07T16:44:39.975Z,27.85
2023-02-07T16:45:40.326Z,27.85
2023-02-07T16:46:39.950Z,27.82
2023-02-07T16:47:39.959Z,27.80
2023-02-07T16:48:39.956Z,27.83
2023-02-07T16:51:40.088Z,27.79
2023-02-07T16:52:40.113Z,27.82
2023-02-07T16:53:40.185Z,27.82
2023-02-07T16:54:40.249Z,27.80
2023-02-07T16:56:40.402Z,27.79
2023-02-07T17:30:42.520Z,27.65
2023-02-07T17:31:42.557Z,27.66
2023-02-07T17:32:42.563Z,27.65
2023-02-07T17:33:42.611Z,27.63
2023-02-07T17:34:42.645Z,27.65
2023-02-07T17:35:42.734Z,27.65
2023-02-07T17:36:42.770Z,27.60
2023-02-07T17:37:42.845Z,27.63
2023-02-07T17:38:42.879Z,27.62
2023-02-07T17:39:42.958Z,27.62
2023-02-07T17:40:43.046Z,27.62
2023-02-07T17:41:43.070Z,27.60
2023-02-07T17:42:43.144Z,27.60
2023-02-07T17:43:43.183Z,27.59
2023-02-07T17:44:43.228Z,27.60
2023-02-07T17:45:43.336Z,27.60
2023-02-07T17:46:43.349Z,27.59
2023-02-07T17:47:43.348Z,27.60
2023-02-07T17:48:43.428Z,27.58
2023-02-07T17:49:43.436Z,27.59
2023-02-07T17:50:43.463Z,27.58
2023-02-07T17:51:43.515Z,27.56
2023-02-07T17:52:43.556Z,27.58
2023-02-07T17:53:43.594Z,27.56
2023-02-07T17:54:43.612Z,27.55
2023-02-07T17:55:43.647Z,27.56
2023-02-07T17:56:43.676Z,27.56
2023-02-07T17:57:43.682Z,27.58